Time;durP1;ratioP1;P1;durP2;ratioP2;P2;SDS_P1;SDS_P2;PMS_P1;PMS_P2;Temp;Humidity;BMP_temperature;BMP_pressure;BME280_temperature;BME280_humidity;BME280_pressure;Samples;Min_cycle;Max_cycle;Signal;HPM_P1;HPM_P2
2022/09/03 00:00:17;;;;;;;3.50;3.27;;;;;;;;;;4993418;28;20183;-76
2022/09/03 00:02:46;;;;;;;4.00;3.70;;;;;;;;;;5009685;28;20185;-75
2022/09/03 00:05:17;;;;;;;3.53;3.23;;;;;;;;;;5004052;28;20176;-76
2022/09/03 00:08:00;;;;;;;3.87;3.50;;;;;;;;;;5013078;28;20218;-76
2022/09/03 00:10:44;;;;;;;3.57;3.27;;;;;;;;;;5002248;28;20197;-76
2022/09/03 00:13:12;;;;;;;3.20;3.00;;;;;;;;;;4980466;28;20255;-76
2022/09/03 00:15:39;;;;;;;3.73;3.33;;;;;;;;;;4985397;28;20182;-75
2022/09/03 00:18:09;;;;;;;4.00;3.70;;;;;;;;;;4993067;28;20181;-76
2022/09/03 00:20:40;;;;;;;3.57;3.00;;;;;;;;;;4992434;28;20189;-75
2022/09/03 00:23:20;;;;;;;3.40;3.10;;;;;;;;;;4985788;28;20179;-75
2022/09/03 00:26:01;;;;;;;3.80;3.50;;;;;;;;;;4994108;28;20274;-76
2022/09/03 00:28:37;;;;;;;4.50;3.47;;;;;;;;;;4993352;28;20327;-75
2022/09/03 00:31:06;;;;;;;4.40;3.57;;;;;;;;;;4985778;28;20217;-76
2022/09/03 00:33:32;;;;;;;3.40;3.00;;;;;;;;;;4980597;28;20197;-76
2022/09/03 00:36:01;;;;;;;4.30;3.40;;;;;;;;;;4993275;28;20213;-76
2022/09/03 00:38:28;;;;;;;2.97;2.67;;;;;;;;;;4990052;28;20180;-76
2022/09/03 00:40:59;;;;;;;3.40;3.10;;;;;;;;;;4993719;28;20178;-76
2022/09/03 00:43:37;;;;;;;4.07;3.57;;;;;;;;;;4990054;28;20172;-76
2022/09/03 00:46:19;;;;;;;3.90;3.33;;;;;;;;;;4992593;28;20185;-76
2022/09/03 00:49:01;;;;;;;3.37;3.17;;;;;;;;;;5009884;28;20188;-76
2022/09/03 00:51:37;;;;;;;3.00;2.80;;;;;;;;;;4989610;28;20199;-76
2022/09/03 00:54:08;;;;;;;3.53;3.23;;;;;;;;;;4987174;28;20172;-76
2022/09/03 00:56:38;;;;;;;3.27;3.07;;;;;;;;;;4990690;28;20179;-76
2022/09/03 00:59:13;;;;;;;3.90;3.07;;;;;;;;;;4999368;28;20172;-75
2022/09/03 01:01:45;;;;;;;3.43;3.20;;;;;;;;;;4999085;28;20184;-76
2022/09/03 01:04:20;;;;;;;3.53;3.23;;;;;;;;;;4980979;28;20260;-76
2022/09/03 01:06:48;;;;;;;3.63;3.33;;;;;;;;;;5003631;28;20175;-76
2022/09/03 01:09:13;;;;;;;6.27;3.20;;;;;;;;;;4999195;28;20349;-76
2022/09/03 01:11:48;;;;;;;3.03;2.63;;;;;;;;;;5009421;28;20212;-76
2022/09/03 01:14:29;;;;;;;4.53;2.77;;;;;;;;;;5024861;28;20174;-75
2022/09/03 01:17:01;;;;;;;4.07;3.67;;;;;;;;;;4997077;28;20193;-76
2022/09/03 01:19:45;;;;;;;3.63;3.33;;;;;;;;;;5019527;28;20171;-76
2022/09/03 01:22:24;;;;;;;3.70;3.27;;;;;;;;;;4999449;28;20183;-76
2022/09/03 01:25:09;;;;;;;3.47;3.17;;;;;;;;;;5000818;28;20218;-76
2022/09/03 01:27:45;;;;;;;3.20;2.97;;;;;;;;;;5009122;28;20179;-76
2022/09/03 01:30:16;;;;;;;4.53;2.90;;;;;;;;;;5011112;28;20243;-76
2022/09/03 01:32:41;;;;;;;3.80;2.97;;;;;;;;;;5003697;28;20174;-76
2022/09/03 01:35:16;;;;;;;3.73;3.43;;;;;;;;;;5019952;28;20286;-76
2022/09/03 01:37:47;;;;;;;3.70;3.40;;;;;;;;;;4989335;28;20261;-76
2022/09/03 01:40:18;;;;;;;7.73;3.80;;;;;;;;;;5006374;28;20190;-76
2022/09/03 01:42:44;;;;;;;7.83;4.00;;;;;;;;;;4992194;28;20175;-76
2022/09/03 01:45:20;;;;;;;3.57;3.20;;;;;;;;;;4989240;28;20200;-75
2022/09/03 01:47:52;;;;;;;5.60;3.37;;;;;;;;;;5011369;28;20192;-76
2022/09/03 01:50:23;;;;;;;4.37;3.10;;;;;;;;;;4992476;28;20197;-76
2022/09/03 01:52:48;;;;;;;3.20;2.90;;;;;;;;;;4992336;28;20188;-76
2022/09/03 01:55:20;;;;;;;4.20;3.80;;;;;;;;;;4975403;28;20181;-76
2022/09/03 01:57:46;;;;;;;3.70;3.40;;;;;;;;;;5009250;28;20488;-76
2022/09/03 02:00:17;;;;;;;3.80;3.30;;;;;;;;;;5022398;28;20181;-76
2022/09/03 02:02:43;;;;;;;3.57;3.27;;;;;;;;;;5019754;28;20179;-75
2022/09/03 02:05:11;;;;;;;3.87;3.47;;;;;;;;;;4990765;28;20206;-76
2022/09/03 02:08:09;;;;;;;4.07;3.13;;;;;;;;;;5001507;28;20178;-76
2022/09/03 02:11:01;;;;;;;4.60;3.70;;;;;;;;;;4961417;28;20229;-76
2022/09/03 02:13:26;;;;;;;3.80;3.40;;;;;;;;;;4990838;28;20319;-76
2022/09/03 02:15:52;;;;;;;3.77;3.10;;;;;;;;;;4989565;28;20191;-76
2022/09/03 02:18:19;;;;;;;3.30;3.00;;;;;;;;;;4987425;28;20177;-76
2022/09/03 02:20:46;;;;;;;3.63;3.33;;;;;;;;;;4982220;28;20191;-75
2022/09/03 02:23:12;;;;;;;5.57;3.63;;;;;;;;;;4989682;28;20179;-75
2022/09/03 02:25:40;;;;;;;3.87;3.50;;;;;;;;;;4985731;28;20186;-76
2022/09/03 02:28:06;;;;;;;4.10;3.53;;;;;;;;;;4974287;28;20181;-76
2022/09/03 02:30:32;;;;;;;3.57;3.37;;;;;;;;;;4990746;28;20242;-76
2022/09/03 02:32:57;;;;;;;3.47;3.17;;;;;;;;;;4974961;28;20222;-76
2022/09/03 02:35:23;;;;;;;3.90;3.60;;;;;;;;;;4985690;28;20227;-76
2022/09/03 02:37:49;;;;;;;3.80;3.43;;;;;;;;;;4996062;28;20191;-75
2022/09/03 02:40:14;;;;;;;3.67;3.37;;;;;;;;;;4988870;28;20184;-75
2022/09/03 02:42:40;;;;;;;3.53;3.23;;;;;;;;;;5004407;28;20180;-75
2022/09/03 02:45:21;;;;;;;4.90;3.07;;;;;;;;;;5002184;28;20198;-76
2022/09/03 02:47:49;;;;;;;3.67;3.37;;;;;;;;;;4989157;28;20180;-76
2022/09/03 02:50:14;;;;;;;3.50;3.30;;;;;;;;;;4993267;28;20181;-76
2022/09/03 02:52:39;;;;;;;3.80;3.50;;;;;;;;;;4976682;28;20242;-75
2022/09/03 02:55:05;;;;;;;3.43;3.00;;;;;;;;;;4982356;28;20238;-76
2022/09/03 02:57:30;;;;;;;3.67;3.37;;;;;;;;;;4992233;28;20204;-75
2022/09/03 02:59:55;;;;;;;3.97;3.67;;;;;;;;;;4998098;28;20204;-76
2022/09/03 03:02:20;;;;;;;3.60;3.27;;;;;;;;;;4985396;28;20275;-76
2022/09/03 03:04:46;;;;;;;5.23;3.00;;;;;;;;;;4988194;28;20196;-76
2022/09/03 03:07:11;;;;;;;3.83;3.53;;;;;;;;;;4995022;28;20191;-75
2022/09/03 03:09:36;;;;;;;3.70;3.50;;;;;;;;;;4990730;28;20241;-75
2022/09/03 03:12:01;;;;;;;3.43;3.10;;;;;;;;;;4987137;28;20229;-76
2022/09/03 03:14:27;;;;;;;4.93;3.20;;;;;;;;;;4983563;28;20201;-76
2022/09/03 03:16:52;;;;;;;3.47;3.27;;;;;;;;;;4999168;28;20176;-76
2022/09/03 03:19:17;;;;;;;3.90;3.60;;;;;;;;;;5000195;28;20183;-76
2022/09/03 03:21:43;;;;;;;3.27;2.97;;;;;;;;;;4997727;28;20177;-76
2022/09/03 03:24:09;;;;;;;3.50;3.20;;;;;;;;;;4998155;28;20185;-76
2022/09/03 03:26:34;;;;;;;4.77;3.53;;;;;;;;;;4994538;28;20296;-76
2022/09/03 03:29:00;;;;;;;4.83;3.93;;;;;;;;;;4994336;28;20176;-76
2022/09/03 03:31:26;;;;;;;3.90;3.50;;;;;;;;;;4994217;28;20210;-76
2022/09/03 03:33:52;;;;;;;3.43;3.23;;;;;;;;;;5009395;28;20355;-76
2022/09/03 03:36:17;;;;;;;3.60;3.30;;;;;;;;;;4994720;28;20178;-76
2022/09/03 03:38:43;;;;;;;3.37;3.17;;;;;;;;;;4991008;28;20277;-76
2022/09/03 03:41:20;;;;;;;3.33;3.13;;;;;;;;;;4998656;28;20225;-76
2022/09/03 03:43:46;;;;;;;3.50;3.20;;;;;;;;;;5006734;28;20276;-76
2022/09/03 03:46:11;;;;;;;4.17;3.30;;;;;;;;;;4995703;28;20291;-75
2022/09/03 03:48:37;;;;;;;4.43;3.30;;;;;;;;;;4992604;28;20259;-76
2022/09/03 03:51:05;;;;;;;3.60;3.30;;;;;;;;;;4998160;28;20258;-75
2022/09/03 03:53:30;;;;;;;7.00;3.40;;;;;;;;;;5001058;28;20180;-76
2022/09/03 03:55:57;;;;;;;3.50;3.20;;;;;;;;;;4990011;28;20179;-75
2022/09/03 03:58:23;;;;;;;3.73;3.43;;;;;;;;;;5004390;28;20183;-76
2022/09/03 04:00:48;;;;;;;3.97;2.93;;;;;;;;;;5003596;28;20196;-76
2022/09/03 04:03:14;;;;;;;3.50;3.23;;;;;;;;;;5004112;28;20185;-76
2022/09/03 04:05:39;;;;;;;3.53;3.17;;;;;;;;;;5004412;28;20230;-76
2022/09/03 04:08:05;;;;;;;4.07;3.63;;;;;;;;;;5001617;28;20184;-76
2022/09/03 04:10:30;;;;;;;4.60;2.80;;;;;;;;;;4987736;28;20200;-76
2022/09/03 04:12:55;;;;;;;3.63;3.37;;;;;;;;;;5017752;28;20307;-76
2022/09/03 04:15:21;;;;;;;3.53;3.23;;;;;;;;;;5002835;28;20208;-76
2022/09/03 04:17:46;;;;;;;3.57;3.23;;;;;;;;;;5027078;28;20203;-76
2022/09/03 04:20:11;;;;;;;3.60;3.30;;;;;;;;;;4995328;28;20199;-76
2022/09/03 04:22:36;;;;;;;3.40;3.10;;;;;;;;;;4996939;28;20176;-76
2022/09/03 04:25:02;;;;;;;4.60;3.13;;;;;;;;;;5013212;28;20214;-76
2022/09/03 04:27:27;;;;;;;6.63;3.40;;;;;;;;;;5004662;28;20261;-76
2022/09/03 04:29:52;;;;;;;3.60;3.30;;;;;;;;;;5021851;28;20323;-75
2022/09/03 04:35:01;;;;;;;3.63;3.33;;;;;;;;;;5009463;28;20198;-76
2022/09/03 04:37:26;;;;;;;3.83;3.37;;;;;;;;;;5017723;28;20185;-76
2022/09/03 04:39:53;;;;;;;4.10;3.53;;;;;;;;;;4999469;28;20181;-76
2022/09/03 04:42:18;;;;;;;3.60;3.30;;;;;;;;;;5017593;28;20183;-76
2022/09/03 04:44:43;;;;;;;3.67;3.37;;;;;;;;;;5000408;28;20182;-75
2022/09/03 04:47:08;;;;;;;3.90;3.60;;;;;;;;;;5008985;28;20273;-76
2022/09/03 04:49:34;;;;;;;3.40;3.10;;;;;;;;;;5027540;28;20257;-76
2022/09/03 04:51:59;;;;;;;4.23;3.50;;;;;;;;;;4995858;28;20195;-76
2022/09/03 04:54:24;;;;;;;4.03;3.60;;;;;;;;;;5010168;28;20172;-76
2022/09/03 04:56:49;;;;;;;4.10;3.60;;;;;;;;;;5017211;28;20179;-76
2022/09/03 04:59:14;;;;;;;4.17;3.77;;;;;;;;;;4993605;28;20210;-76
2022/09/03 05:01:40;;;;;;;4.13;3.77;;;;;;;;;;4997082;28;20193;-76
2022/09/03 05:04:06;;;;;;;3.70;3.40;;;;;;;;;;5006715;28;20213;-75
2022/09/03 05:06:32;;;;;;;4.50;4.07;;;;;;;;;;4994638;28;20178;-76
2022/09/03 05:08:57;;;;;;;4.07;3.70;;;;;;;;;;4993806;28;20192;-76
2022/09/03 05:11:23;;;;;;;4.00;3.70;;;;;;;;;;5004908;28;20253;-76
2022/09/03 05:13:49;;;;;;;3.70;3.40;;;;;;;;;;5022367;28;20226;-76
2022/09/03 05:16:15;;;;;;;4.07;3.77;;;;;;;;;;5007402;28;20179;-76
2022/09/03 05:18:41;;;;;;;3.80;3.50;;;;;;;;;;5004899;28;20245;-76
2022/09/03 05:21:11;;;;;;;3.60;3.30;;;;;;;;;;4994553;28;20722;-76
2022/09/03 05:23:38;;;;;;;4.30;3.97;;;;;;;;;;4993180;28;20194;-76
2022/09/03 05:26:07;;;;;;;3.70;3.40;;;;;;;;;;4998664;28;20187;-76
2022/09/03 05:28:35;;;;;;;3.87;3.57;;;;;;;;;;5018180;28;20162;-76
2022/09/03 05:31:07;;;;;;;3.87;3.50;;;;;;;;;;4996784;28;20227;-76
2022/09/03 05:33:34;;;;;;;4.50;3.80;;;;;;;;;;4992024;28;20215;-75
2022/09/03 05:36:00;;;;;;;4.00;3.70;;;;;;;;;;5002208;28;20180;-76
2022/09/03 05:38:25;;;;;;;3.80;3.50;;;;;;;;;;5017523;28;20187;-76
2022/09/03 05:40:50;;;;;;;3.90;3.60;;;;;;;;;;4981427;28;20183;-76
2022/09/03 05:43:16;;;;;;;4.37;4.07;;;;;;;;;;4993712;28;20207;-76
2022/09/03 05:45:41;;;;;;;3.60;3.40;;;;;;;;;;5003381;28;20173;-76
2022/09/03 05:48:06;;;;;;;4.00;3.70;;;;;;;;;;5007993;28;20208;-76
2022/09/03 05:50:32;;;;;;;4.60;4.20;;;;;;;;;;5012523;28;20231;-76
2022/09/03 05:52:57;;;;;;;4.03;3.73;;;;;;;;;;4997988;28;20182;-76
2022/09/03 05:55:22;;;;;;;3.17;2.90;;;;;;;;;;4984496;28;20178;-76
2022/09/03 05:57:51;;;;;;;4.13;3.53;;;;;;;;;;5007707;28;20171;-76
2022/09/03 06:00:18;;;;;;;3.90;3.60;;;;;;;;;;4989109;28;20221;-76
2022/09/03 06:02:48;;;;;;;4.33;3.93;;;;;;;;;;4989697;28;20336;-76
2022/09/03 06:05:15;;;;;;;4.10;3.80;;;;;;;;;;5006608;28;20175;-76
2022/09/03 06:07:41;;;;;;;4.07;3.77;;;;;;;;;;4997625;28;20180;-76
2022/09/03 06:10:06;;;;;;;4.03;3.73;;;;;;;;;;5007457;28;20230;-76
2022/09/03 06:12:31;;;;;;;4.27;3.97;;;;;;;;;;5013373;28;20227;-76
2022/09/03 06:14:57;;;;;;;3.80;3.50;;;;;;;;;;5019315;28;20184;-76
2022/09/03 06:17:22;;;;;;;4.33;3.93;;;;;;;;;;5010921;28;20328;-76
2022/09/03 06:19:47;;;;;;;4.70;4.23;;;;;;;;;;4990615;28;20183;-76
2022/09/03 06:22:13;;;;;;;4.50;4.10;;;;;;;;;;4987886;28;20242;-76
2022/09/03 06:24:38;;;;;;;4.47;4.17;;;;;;;;;;5013058;28;20172;-74
2022/09/03 06:27:04;;;;;;;4.90;4.50;;;;;;;;;;4994776;28;20204;-74
2022/09/03 06:29:29;;;;;;;5.13;4.63;;;;;;;;;;4987100;28;20410;-74
2022/09/03 06:31:55;;;;;;;4.77;4.37;;;;;;;;;;5000725;28;20204;-74
2022/09/03 06:34:21;;;;;;;5.57;4.93;;;;;;;;;;4979148;28;20224;-74
2022/09/03 06:36:46;;;;;;;5.20;4.57;;;;;;;;;;5003582;28;20213;-74
2022/09/03 06:39:11;;;;;;;27.37;18.53;;;;;;;;;;4994486;28;20220;-74
2022/09/03 06:41:37;;;;;;;19.17;13.23;;;;;;;;;;5002884;28;20180;-74
2022/09/03 06:44:10;;;;;;;18.80;15.17;;;;;;;;;;5021957;28;20180;-74
2022/09/03 06:46:37;;;;;;;9.17;7.90;;;;;;;;;;4993865;28;20179;-74
2022/09/03 06:49:02;;;;;;;5.87;5.37;;;;;;;;;;5021408;28;20186;-75
2022/09/03 06:51:29;;;;;;;5.40;4.90;;;;;;;;;;5004496;28;20205;-74
2022/09/03 06:53:58;;;;;;;5.40;4.93;;;;;;;;;;5017406;28;20179;-74
2022/09/03 06:56:25;;;;;;;5.43;4.93;;;;;;;;;;5010696;28;20218;-74
2022/09/03 06:58:51;;;;;;;5.80;5.20;;;;;;;;;;4984143;28;20202;-74
2022/09/03 07:01:18;;;;;;;6.63;4.90;;;;;;;;;;5009292;28;20183;-74
2022/09/03 07:03:44;;;;;;;6.00;5.50;;;;;;;;;;4985020;28;20190;-74
2022/09/03 07:06:10;;;;;;;5.93;4.60;;;;;;;;;;4994586;28;20243;-74
2022/09/03 07:08:36;;;;;;;11.03;4.57;;;;;;;;;;5001752;28;20213;-73
2022/09/03 07:11:07;;;;;;;5.03;4.63;;;;;;;;;;4993466;28;20208;-74
2022/09/03 07:13:34;;;;;;;4.43;4.00;;;;;;;;;;4971587;28;20245;-74
2022/09/03 07:16:08;;;;;;;4.50;4.20;;;;;;;;;;4987282;28;20184;-74
2022/09/03 07:18:33;;;;;;;4.70;4.10;;;;;;;;;;4982707;28;20180;-76
2022/09/03 07:21:00;;;;;;;4.00;3.70;;;;;;;;;;4982037;28;20182;-76
2022/09/03 07:23:25;;;;;;;4.63;4.10;;;;;;;;;;4976943;28;20198;-76
2022/09/03 07:25:58;;;;;;;4.00;3.70;;;;;;;;;;4979094;28;20184;-76
2022/09/03 07:28:23;;;;;;;4.03;3.63;;;;;;;;;;4994259;28;20186;-76
2022/09/03 07:30:49;;;;;;;4.27;3.97;;;;;;;;;;4984337;28;20201;-77
2022/09/03 07:33:14;;;;;;;4.23;3.83;;;;;;;;;;4989019;28;20202;-76
2022/09/03 07:35:39;;;;;;;4.50;4.20;;;;;;;;;;4978617;28;20175;-75
2022/09/03 07:38:04;;;;;;;5.30;4.57;;;;;;;;;;4983086;28;20237;-76
2022/09/03 07:40:32;;;;;;;4.70;4.30;;;;;;;;;;4978294;28;20303;-77
2022/09/03 07:43:03;;;;;;;4.20;3.90;;;;;;;;;;4984888;28;20275;-76
2022/09/03 07:45:29;;;;;;;4.17;3.77;;;;;;;;;;4994100;28;20180;-77
2022/09/03 07:47:55;;;;;;;4.70;4.33;;;;;;;;;;4975916;28;20187;-76
2022/09/03 07:50:20;;;;;;;5.13;4.53;;;;;;;;;;4984333;28;20215;-76
2022/09/03 07:52:46;;;;;;;5.40;4.90;;;;;;;;;;4993819;28;20604;-76
2022/09/03 07:55:11;;;;;;;6.83;5.23;;;;;;;;;;4975394;28;20195;-77
2022/09/03 07:57:37;;;;;;;4.70;4.30;;;;;;;;;;4982751;28;20207;-76
2022/09/03 08:00:02;;;;;;;5.30;4.57;;;;;;;;;;4975122;28;20191;-76
2022/09/03 08:02:27;;;;;;;5.97;4.60;;;;;;;;;;4979838;28;20182;-76
2022/09/03 08:04:52;;;;;;;5.43;4.93;;;;;;;;;;4991151;28;20191;-76
2022/09/03 08:07:19;;;;;;;4.70;4.40;;;;;;;;;;4991509;28;20275;-76
2022/09/03 08:09:44;;;;;;;4.57;4.00;;;;;;;;;;4990580;28;20184;-76
2022/09/03 08:12:09;;;;;;;5.20;4.80;;;;;;;;;;4978160;28;20235;-76
2022/09/03 08:14:35;;;;;;;4.30;4.00;;;;;;;;;;4986449;28;20180;-76
2022/09/03 08:17:00;;;;;;;4.10;3.80;;;;;;;;;;4987399;28;20179;-76
2022/09/03 08:19:25;;;;;;;4.33;3.93;;;;;;;;;;4990761;28;20198;-77
2022/09/03 08:21:50;;;;;;;4.13;3.73;;;;;;;;;;4982346;28;20211;-76
2022/09/03 08:24:16;;;;;;;3.77;3.47;;;;;;;;;;4983422;28;20270;-76
2022/09/03 08:26:41;;;;;;;4.00;3.70;;;;;;;;;;4987234;28;20281;-77
2022/09/03 08:29:07;;;;;;;4.90;3.90;;;;;;;;;;4979375;28;20179;-75
2022/09/03 08:31:33;;;;;;;4.23;3.93;;;;;;;;;;4981804;28;20207;-76
2022/09/03 08:34:00;;;;;;;4.50;4.10;;;;;;;;;;4978922;28;20205;-76
2022/09/03 08:36:28;;;;;;;4.60;4.20;;;;;;;;;;4977799;28;20190;-77
2022/09/03 08:38:54;;;;;;;4.73;4.23;;;;;;;;;;4985837;28;20190;-76
2022/09/03 08:41:38;;;;;;;3.83;3.53;;;;;;;;;;4979984;28;20182;-76
2022/09/03 08:44:19;;;;;;;3.87;3.57;;;;;;;;;;4984206;28;20208;-76
2022/09/03 08:46:50;;;;;;;5.57;4.33;;;;;;;;;;4978964;28;20190;-77
2022/09/03 08:49:19;;;;;;;5.47;4.70;;;;;;;;;;4979964;28;20240;-77
2022/09/03 08:51:46;;;;;;;5.00;4.50;;;;;;;;;;4983369;28;20230;-76
2022/09/03 08:54:12;;;;;;;4.57;3.90;;;;;;;;;;4976953;28;20199;-76
2022/09/03 08:56:39;;;;;;;4.37;4.07;;;;;;;;;;4971443;28;20178;-77
2022/09/03 08:59:04;;;;;;;5.40;4.30;;;;;;;;;;4992305;28;20263;-76
2022/09/03 09:01:33;;;;;;;4.10;3.80;;;;;;;;;;4979002;28;20276;-76
2022/09/03 09:04:10;;;;;;;4.20;3.87;;;;;;;;;;4982529;28;20185;-76
2022/09/03 09:06:46;;;;;;;5.83;5.27;;;;;;;;;;4989846;28;20178;-76
2022/09/03 09:09:29;;;;;;;4.43;4.13;;;;;;;;;;4981643;28;20184;-75
2022/09/03 09:11:58;;;;;;;4.07;3.67;;;;;;;;;;4979599;28;20204;-76
2022/09/03 09:14:29;;;;;;;4.93;4.53;;;;;;;;;;4984626;28;20188;-76
2022/09/03 09:17:07;;;;;;;4.40;4.10;;;;;;;;;;4988530;28;20187;-76
2022/09/03 09:19:35;;;;;;;4.37;3.97;;;;;;;;;;4987130;28;20182;-74
2022/09/03 09:22:02;;;;;;;4.13;3.73;;;;;;;;;;4986848;28;20177;-76
2022/09/03 09:24:32;;;;;;;4.00;3.60;;;;;;;;;;4988794;28;20272;-76
2022/09/03 09:26:58;;;;;;;4.30;4.00;;;;;;;;;;4988476;28;20185;-76
2022/09/03 09:29:26;;;;;;;4.90;4.40;;;;;;;;;;4982868;28;20188;-75
2022/09/03 09:31:52;;;;;;;4.50;4.10;;;;;;;;;;4998080;28;20306;-77
2022/09/03 09:34:20;;;;;;;4.77;4.40;;;;;;;;;;4987239;28;20209;-76
2022/09/03 09:36:50;;;;;;;4.63;4.23;;;;;;;;;;4987652;28;20272;-75
2022/09/03 09:39:16;;;;;;;5.77;5.27;;;;;;;;;;4983031;28;20205;-75
2022/09/03 09:41:42;;;;;;;5.23;4.73;;;;;;;;;;5006697;28;20195;-75
2022/09/03 09:44:18;;;;;;;5.10;4.60;;;;;;;;;;4994234;28;20177;-75
2022/09/03 09:46:50;;;;;;;5.60;4.50;;;;;;;;;;5004442;28;20182;-76
2022/09/03 09:49:21;;;;;;;6.17;5.10;;;;;;;;;;4995480;28;20180;-75
2022/09/03 09:51:47;;;;;;;4.90;4.40;;;;;;;;;;4989717;28;20265;-75
2022/09/03 09:54:15;;;;;;;5.00;4.60;;;;;;;;;;4983132;28;20210;-77
2022/09/03 09:56:43;;;;;;;5.13;4.73;;;;;;;;;;5002771;28;20182;-77
2022/09/03 09:59:09;;;;;;;5.33;4.93;;;;;;;;;;4988386;28;20176;-77
2022/09/03 10:01:43;;;;;;;5.43;4.90;;;;;;;;;;4996113;28;20190;-77
2022/09/03 10:04:10;;;;;;;4.63;4.33;;;;;;;;;;5008201;28;20214;-77
2022/09/03 10:06:55;;;;;;;5.47;4.97;;;;;;;;;;5004543;28;20178;-77
2022/09/03 10:09:22;;;;;;;5.17;4.77;;;;;;;;;;4984302;28;20180;-77
2022/09/03 10:11:50;;;;;;;5.07;4.67;;;;;;;;;;4981412;28;20244;-77
2022/09/03 10:14:15;;;;;;;5.47;4.90;;;;;;;;;;4992954;28;20177;-77
2022/09/03 10:16:47;;;;;;;5.67;5.17;;;;;;;;;;4993795;28;20185;-77
2022/09/03 10:19:15;;;;;;;5.03;4.63;;;;;;;;;;4999766;28;20185;-77
2022/09/03 10:21:44;;;;;;;4.60;4.30;;;;;;;;;;4999310;28;20199;-77
2022/09/03 10:24:14;;;;;;;4.53;4.10;;;;;;;;;;5004318;28;20178;-77
2022/09/03 10:26:40;;;;;;;4.00;3.70;;;;;;;;;;5018184;28;20186;-77
2022/09/03 10:29:06;;;;;;;4.00;3.70;;;;;;;;;;5010131;28;20182;-77
2022/09/03 10:31:35;;;;;;;4.50;4.10;;;;;;;;;;4995579;28;20211;-76
2022/09/03 10:34:08;;;;;;;4.43;4.10;;;;;;;;;;4995251;28;20271;-77
2022/09/03 10:36:56;;;;;;;4.87;4.50;;;;;;;;;;4997389;28;20275;-77
2022/09/03 10:39:31;;;;;;;4.40;4.10;;;;;;;;;;5004409;28;20180;-77
2022/09/03 10:42:15;;;;;;;3.77;3.37;;;;;;;;;;4984765;28;20286;-77
2022/09/03 10:44:53;;;;;;;4.80;4.40;;;;;;;;;;5002119;28;20196;-77
2022/09/03 10:47:37;;;;;;;4.00;3.57;;;;;;;;;;4986844;28;20176;-77
2022/09/03 10:50:24;;;;;;;4.50;4.10;;;;;;;;;;4982181;28;20207;-77
2022/09/03 10:52:58;;;;;;;4.50;4.00;;;;;;;;;;5004348;28;20201;-77
2022/09/03 10:55:42;;;;;;;3.97;3.67;;;;;;;;;;5005393;28;20180;-77
2022/09/03 10:58:11;;;;;;;3.90;3.60;;;;;;;;;;5004808;28;20181;-77
2022/09/03 11:00:40;;;;;;;4.27;3.90;;;;;;;;;;5009683;28;20203;-77
2022/09/03 11:03:11;;;;;;;4.10;3.80;;;;;;;;;;4989386;28;20190;-77
2022/09/03 11:05:39;;;;;;;4.10;3.70;;;;;;;;;;4990385;28;20263;-77
2022/09/03 11:08:20;;;;;;;4.20;3.90;;;;;;;;;;4982350;28;20185;-77
2022/09/03 11:10:49;;;;;;;4.33;4.03;;;;;;;;;;5008291;28;20214;-77
2022/09/03 11:13:37;;;;;;;4.80;4.40;;;;;;;;;;5005740;28;20246;-77
2022/09/03 11:16:26;;;;;;;3.30;3.10;;;;;;;;;;5010850;28;20182;-77
2022/09/03 11:18:57;;;;;;;4.20;3.90;;;;;;;;;;4975198;28;20297;-77
2022/09/03 11:21:27;;;;;;;4.13;3.83;;;;;;;;;;5008145;28;20347;-77
2022/09/03 11:24:08;;;;;;;4.00;3.57;;;;;;;;;;5002632;28;20192;-77
2022/09/03 11:26:34;;;;;;;4.80;3.90;;;;;;;;;;5000471;28;20217;-77
2022/09/03 11:29:12;;;;;;;4.37;4.00;;;;;;;;;;4996292;28;20177;-77
2022/09/03 11:31:40;;;;;;;4.33;4.03;;;;;;;;;;4983679;28;20229;-77
2022/09/03 11:34:12;;;;;;;4.43;3.83;;;;;;;;;;4998430;28;20207;-77
2022/09/03 11:36:38;;;;;;;4.60;4.10;;;;;;;;;;4994746;28;20177;-77
2022/09/03 11:39:22;;;;;;;4.03;3.73;;;;;;;;;;4995177;28;20178;-77
2022/09/03 11:42:05;;;;;;;3.97;3.67;;;;;;;;;;4992227;28;20215;-77
2022/09/03 11:44:50;;;;;;;4.87;4.33;;;;;;;;;;5008157;28;20191;-76
2022/09/03 11:47:36;;;;;;;3.77;3.47;;;;;;;;;;4995545;28;20181;-76
2022/09/03 11:50:16;;;;;;;4.27;3.67;;;;;;;;;;4989679;28;20207;-77
2022/09/03 11:52:42;;;;;;;4.13;3.83;;;;;;;;;;4987645;28;20216;-77
2022/09/03 11:55:07;;;;;;;4.10;3.80;;;;;;;;;;5012221;28;20183;-77
2022/09/03 11:57:38;;;;;;;4.93;4.53;;;;;;;;;;4999216;28;20177;-76
2022/09/03 12:00:16;;;;;;;4.50;4.20;;;;;;;;;;4998700;28;20174;-77
2022/09/03 12:02:44;;;;;;;3.80;3.50;;;;;;;;;;5008170;28;20209;-77
2022/09/03 12:05:09;;;;;;;4.53;3.77;;;;;;;;;;5005656;28;20190;-77
2022/09/03 12:07:35;;;;;;;3.73;3.43;;;;;;;;;;5006556;28;20209;-77
2022/09/03 12:10:03;;;;;;;4.37;3.97;;;;;;;;;;5007214;28;20265;-77
2022/09/03 12:12:47;;;;;;;4.47;4.07;;;;;;;;;;5012893;28;20300;-77
2022/09/03 12:15:15;;;;;;;4.10;3.70;;;;;;;;;;4994904;28;20185;-77
2022/09/03 12:17:48;;;;;;;3.90;3.60;;;;;;;;;;4987436;28;20208;-76
2022/09/03 12:20:14;;;;;;;4.07;3.70;;;;;;;;;;5007700;28;20178;-77
2022/09/03 12:22:40;;;;;;;5.23;4.03;;;;;;;;;;4992612;28;20194;-77
2022/09/03 12:25:13;;;;;;;3.80;3.50;;;;;;;;;;4989536;28;20177;-76
2022/09/03 12:27:39;;;;;;;3.60;3.30;;;;;;;;;;5003298;28;20189;-77
2022/09/03 12:30:12;;;;;;;5.73;4.03;;;;;;;;;;5006652;28;20188;-77
2022/09/03 12:32:39;;;;;;;4.03;3.73;;;;;;;;;;4993196;28;20215;-76
2022/09/03 12:35:16;;;;;;;3.70;3.50;;;;;;;;;;4978759;28;20199;-77
2022/09/03 12:37:44;;;;;;;3.50;3.20;;;;;;;;;;4989346;28;20191;-77
2022/09/03 12:40:20;;;;;;;3.43;3.20;;;;;;;;;;4989968;28;20189;-77
2022/09/03 12:42:46;;;;;;;3.43;3.07;;;;;;;;;;4997780;28;20214;-76
2022/09/03 12:45:14;;;;;;;3.07;2.87;;;;;;;;;;4988283;28;20184;-76
2022/09/03 12:47:40;;;;;;;2.87;2.60;;;;;;;;;;4989069;28;20321;-76
2022/09/03 12:50:23;;;;;;;3.73;3.13;;;;;;;;;;4984729;28;20190;-77
2022/09/03 12:52:48;;;;;;;2.93;2.73;;;;;;;;;;5015153;28;20289;-77
2022/09/03 12:55:25;;;;;;;3.60;3.30;;;;;;;;;;5004259;28;20254;-76
2022/09/03 12:57:53;;;;;;;3.33;2.60;;;;;;;;;;4984640;28;20181;-77
2022/09/03 13:00:18;;;;;;;2.57;2.37;;;;;;;;;;5005700;28;20474;-78
2022/09/03 13:02:52;;;;;;;3.33;2.13;;;;;;;;;;4990752;28;20184;-78
2022/09/03 13:05:19;;;;;;;2.43;2.23;;;;;;;;;;4999403;28;20297;-78
2022/09/03 13:07:48;;;;;;;3.07;1.77;;;;;;;;;;4987489;28;20342;-78
2022/09/03 13:10:21;;;;;;;2.53;2.33;;;;;;;;;;4998468;28;20190;-78
2022/09/03 13:12:47;;;;;;;2.13;1.93;;;;;;;;;;4989138;28;20242;-78
2022/09/03 13:15:23;;;;;;;2.30;2.10;;;;;;;;;;4980606;28;20184;-78
2022/09/03 13:17:51;;;;;;;2.20;2.00;;;;;;;;;;4983706;28;20189;-78
2022/09/03 13:20:23;;;;;;;2.50;2.30;;;;;;;;;;4989837;28;20192;-78
2022/09/03 13:23:00;;;;;;;2.43;2.23;;;;;;;;;;4979436;28;20269;-78
2022/09/03 13:25:36;;;;;;;2.90;1.97;;;;;;;;;;4982918;28;20284;-78
2022/09/03 13:28:08;;;;;;;2.80;2.40;;;;;;;;;;4992748;28;20192;-78
2022/09/03 13:30:42;;;;;;;1.80;1.70;;;;;;;;;;4980865;28;20190;-78
2022/09/03 13:33:10;;;;;;;3.47;2.57;;;;;;;;;;4977858;28;20247;-79
2022/09/03 13:35:38;;;;;;;2.63;2.43;;;;;;;;;;4989228;28;20190;-78
2022/09/03 13:38:04;;;;;;;2.63;2.17;;;;;;;;;;4981993;28;20184;-78
2022/09/03 13:40:48;;;;;;;3.23;2.90;;;;;;;;;;4987808;28;20190;-78
2022/09/03 13:43:22;;;;;;;2.73;2.30;;;;;;;;;;4997740;28;20176;-78
2022/09/03 13:45:55;;;;;;;3.10;2.13;;;;;;;;;;4981894;28;20188;-78
2022/09/03 13:51:22;;;;;;;2.77;2.57;;;;;;;;;;4984530;28;20226;-78
2022/09/03 13:53:52;;;;;;;2.50;2.30;;;;;;;;;;4987998;28;20186;-78
2022/09/03 13:56:18;;;;;;;2.70;2.10;;;;;;;;;;4982750;28;20199;-78
2022/09/03 13:58:49;;;;;;;7.00;3.73;;;;;;;;;;4997935;28;20177;-78
2022/09/03 14:01:38;;;;;;;8.60;4.63;;;;;;;;;;4989011;28;20254;-78
2022/09/03 14:04:10;;;;;;;3.43;2.70;;;;;;;;;;4988594;28;20222;-77
2022/09/03 14:06:40;;;;;;;5.67;2.70;;;;;;;;;;4985566;28;20182;-78
2022/09/03 14:09:11;;;;;;;2.90;2.40;;;;;;;;;;4987852;28;20220;-78
2022/09/03 14:11:48;;;;;;;2.40;2.20;;;;;;;;;;4979832;28;20199;-77
2022/09/03 14:14:22;;;;;;;3.03;2.73;;;;;;;;;;4986004;28;20196;-87
2022/09/03 14:16:54;;;;;;;2.80;2.57;;;;;;;;;;4989918;28;20187;-87
2022/09/03 14:19:31;;;;;;;4.00;3.10;;;;;;;;;;4998782;28;20174;-86
2022/09/03 14:21:59;;;;;;;4.37;3.97;;;;;;;;;;5016509;28;20181;-84
2022/09/03 14:24:40;;;;;;;2.57;2.37;;;;;;;;;;4998419;28;20245;-83
2022/09/03 14:27:06;;;;;;;2.20;2.00;;;;;;;;;;4993532;28;20189;-83
2022/09/03 14:29:32;;;;;;;3.17;2.60;;;;;;;;;;4998850;28;20193;-83
2022/09/03 14:31:57;;;;;;;2.40;2.20;;;;;;;;;;4985406;28;20200;-85
2022/09/03 14:34:32;;;;;;;3.40;2.57;;;;;;;;;;4985039;28;20206;-84
2022/09/03 14:37:08;;;;;;;2.60;2.40;;;;;;;;;;5009012;28;20231;-84
2022/09/03 14:39:49;;;;;;;2.53;2.33;;;;;;;;;;4994810;28;20201;-85
2022/09/03 14:42:38;;;;;;;2.47;2.20;;;;;;;;;;4989798;28;20215;-85
2022/09/03 14:45:12;;;;;;;2.43;1.90;;;;;;;;;;4958245;28;20344;-85
2022/09/03 14:47:56;;;;;;;1.80;1.70;;;;;;;;;;4989090;28;20191;-85
2022/09/03 14:50:31;;;;;;;2.23;1.97;;;;;;;;;;4997939;28;20185;-84
2022/09/03 14:52:59;;;;;;;1.90;1.80;;;;;;;;;;4987695;28;20177;-84
2022/09/03 14:55:31;;;;;;;2.07;1.97;;;;;;;;;;4981204;28;20242;-85
2022/09/03 14:58:03;;;;;;;2.03;1.87;;;;;;;;;;4988606;28;20238;-85
2022/09/03 15:00:31;;;;;;;2.40;2.20;;;;;;;;;;4992601;28;20210;-86
2022/09/03 15:03:02;;;;;;;2.27;2.17;;;;;;;;;;5005969;28;20181;-84